• Join FlightAware (Why Join?)
  • Login
  • US Flag 
06:21AM EST


 

Airport Tracker/Info


-or-


 

Live Flight TrackerFlight Track Log ✈ GPD95 ✈ 12-Jul-2013 ✈ KMVY - KTEB

Flight Track Log - Related Links

Times and Time Zones

All times are in EDT time to prevent confusion due to time zone crossing. See the GPD95 flight status page for this flight to view local times or setup timezone preferences in your user account.

Time Position Orientation Groundspeed Altitude Reporting Facility
EDT Latitude Longitude Course Direction KTS MPH feet Rate Location/Type
05:56PM 41.3516 -70.9066 259° West  Level Estimated
05:57PM 41.3446 -70.9553 259° West  Level Estimated
05:58PM 41.3375 -71.0040 259° West  Level Estimated
05:59PM 41.3304 -71.0528 259° West  Level Estimated
05:59PM 41.3806 -70.8578 308° West 142 163 6,800  Level Boston Center
06:00PM 41.3233 -71.1015 259° West  Level Estimated
06:01PM 41.3162 -71.1502 259° West  Level Estimated
06:01PM 41.4106 -70.9039 311° West 144 166 7,800  Level Boston Center
06:02PM 41.3091 -71.1989 259° West  Level Estimated
06:02PM 41.4361 -70.9447 310° West 154 177 8,100  Level Boston Center
06:02PM 41.4617 -70.9914 306° West 168 193 8,100  Level Boston Center
06:03PM 41.3019 -71.2475 259° West  Level Estimated
06:04PM 41.2947 -71.2962 259° West  Level Estimated
06:04PM 41.4936 -71.0489 307° West 173 199 8,100  Level Boston Center
06:05PM 41.5233 -71.0981 309° West 169 194 8,100  Level Boston Center
06:06PM 41.5575 -71.1556 308° West 168 193 8,100  Level Boston Center
06:07PM 41.5872 -71.2050 309° West 172 198 8,100  Level Boston Center
06:08PM 41.6189 -71.2544 311° West 169 194 8,100  Level Boston Center
06:09PM 41.6464 -71.3039 307° West 168 193 8,100  Level Boston Center
06:10PM 41.6678 -71.3425 307° West 171 197 8,100  Level Boston Center
06:11PM 41.7078 -71.4056 310° West 172 198 8,100 -60 Level Boston Center
06:12PM 41.7167 -71.4639 282° West 170 196 8,000  Descending Boston Center
06:13PM 41.7153 -71.5222 268° West 171 197 8,100  Climbing Boston Center
06:14PM 41.7114 -71.5836 265° West 173 199 8,100  Level Boston Center
06:15PM 41.7056 -71.6419 262° West 178 205 8,100  Level Boston Center
06:16PM 41.7019 -71.7061 266° West 168 193 8,100  Level Boston Center
06:17PM 41.6981 -71.7700 265° West 169 194 8,100  Level Boston Center
06:18PM 41.6922 -71.8481 264° West 171 197 8,100  Level Boston Center
06:19PM 41.6883 -71.9008 264° West 172 198 8,100  Level Boston Center
06:20PM 41.6825 -71.9675 263° West 172 198 8,100  Level Boston Center
06:21PM 41.6786 -72.0369 266° West 172 198 8,100  Level Boston Center
06:22PM 41.6725 -72.1039 263° West 173 199 8,100  Level Boston Center
06:23PM 41.6664 -72.1678 263° West 174 200 8,100  Level Boston Center
06:24PM 41.6625 -72.2344 266° West 175 201 8,100  Level Boston Center
06:25PM 41.6583 -72.2983 265° West 174 200 8,100  Level Boston Center
06:26PM 41.6522 -72.3678 263° West 174 200 8,100  Level Boston Center
06:27PM 41.6458 -72.4344 263° West 174 200 8,100  Level Boston Center
06:28PM 41.6417 -72.5039 265° West 175 201 8,100  Level Boston Center
06:29PM 41.6272 -72.5650 252° West 170 196 8,100 -120 Level Boston Center
06:30PM 41.6042 -72.5900 219° Southwest 170 196 7,900 -420 Descending Boston Center
06:31PM 41.5667 -72.6372 223° Southwest 180 207 7,500 -420 Descending Boston Center
06:32PM 41.5311 -72.6786 221° Southwest 187 215 7,100 -420 Descending Boston Center
06:33PM 41.4933 -72.7283 225° Southwest 188 216 6,800 -420 Descending Boston Center
06:34PM 41.4392 -72.7944 222° Southwest 192 221 6,200 -240 Descending Boston Center
06:35PM 41.4161 -72.8194 219° Southwest 184 212 6,400 180 Climbing Boston Center
06:36PM 41.3908 -72.8800 241° Southwest 174 200 6,600 60 Climbing Boston Center
06:37PM 41.3697 -72.9325 242° Southwest 177 204 6,600 -60 Level Boston Center
06:39PM 41.3167 -73.0667 242° Southwest 183 211 6,500 -180 Descending New York TRACON
06:40PM 41.2833 -73.1333 236° Southwest 188 216 6,200 -360 Descending New York TRACON
06:41PM 41.2667 -73.1833 246° West 194 223 5,800 -420 Descending New York TRACON
06:42PM 41.2333 -73.2500 236° Southwest 194 223 5,400 -420 Descending New York TRACON
06:43PM 41.2167 -73.3167 252° West 194 223 5,000 -360 Descending New York TRACON
06:44PM 41.1833 -73.3833 236° Southwest 195 224 4,700 -360 Descending New York TRACON
06:45PM 41.1833 -73.4500 270° West 194 223 4,300 -420 Descending New York TRACON
06:46PM 41.1667 -73.5167 252° West 197 227 3,900 -420 Descending New York TRACON
06:47PM 41.1667 -73.5833 270° West 194 223 3,500 -480 Descending New York TRACON
06:48PM 41.1833 -73.6667 285° West 196 226 3,000 -480 Descending New York TRACON
06:49PM 41.1833 -73.7333 270° West 190 219 2,600 -300 Descending New York TRACON
06:50PM 41.1833 -73.8000 270° West 181 208 2,500 -120 Descending New York TRACON
06:51PM 41.1667 -73.8500 246° West 181 208 2,400 -300 Descending New York TRACON
06:52PM 41.1167 -73.9000 217° Southwest 183 211 2,000 -480 Descending New York TRACON
06:53PM 41.0833 -73.9167 201° Southwest 177 204 1,500 -360 Descending New York TRACON
06:54PM 41.0333 -73.9167 180° South 171 197 1,300 -120 Descending New York TRACON
06:55PM 40.9833 -73.9333 194° South 158 182 1,300  Level New York TRACON
06:56PM 40.9500 -73.9500 201° Southwest 158 182 1,300 -60 Level New York TRACON
06:57PM 40.9000 -74.0000 217° Southwest 183 211 1,200 -120 Descending New York TRACON
06:58PM 40.8667 -74.0167 201° Southwest 168 193 1,100 -120 Descending New York TRACON
06:59PM 40.8333 -74.0333 201° Southwest 151 174 1,000 -300 Descending New York TRACON
07:00PM 40.8333 -74.0667 270° West 146 168 500 -420 Descending New York TRACON
07:01PM 40.8500 -74.0500 37° Northeast 116 133 200 -300 Descending New York TRACON